»·PEaware :: RNGR804 KNGP-KNGP

RNGR804 :: KNGP-KNGP

FLIGHT INFORMATION

Flight Status: Arrived
Operator: Unknown
More flights by this operator :: More flights under this callsign
Pilot: USN Avenger (31125)
Aircraft: BEECH AIRCRAFT T-6A TEXAN
(TEX2)
More flights by this aircraft type
Origin: KNGP Corpus Christi NAS/Truax
United States
Destination: KNGP Corpus Christi NAS/Truax
United States
More flights between these airports :: More routes between these airports
Route:
File this flight plan on PilotEdge
Remarks:
Altitude:
(Current/Filed)
5,500ft
Speed:
(Current/Filed)
240kts
Departed: 15-Nov-23 09:08 AM
Arrived: 15-Nov-23 09:57 AM
Distance/Time
Traveled:
0nm/0:49
Distance/Time
To Go:
Arrived

Flight Plot

Page will automatically refresh every two minutes.

Flight plan parsing failed; only flown route is shown


Map Options




Map Legend


Flown Route
Filed Route
Departure Airport
Arrival Airport
Navaid (VOR, NDB)
Fix

Horizontal Profiles

Position Reports

Time Latitude Longitude Heading Altitude Ground
Speed
15-Nov-23 08:49 27.698551 -97.284288 158 22ft 0kts
15-Nov-23 08:50 27.698549 -97.284287 158 22ft 0kts
15-Nov-23 08:51 27.698548 -97.284287 158 22ft 0kts
15-Nov-23 08:52 27.698546 -97.284286 158 22ft 0kts
15-Nov-23 08:53 27.698545 -97.284285 158 22ft 0kts
15-Nov-23 08:54 27.698543 -97.284285 158 22ft 0kts
15-Nov-23 08:55 27.698542 -97.284284 158 22ft 0kts
15-Nov-23 08:56 27.698540 -97.284283 158 22ft 0kts
15-Nov-23 08:57 27.698539 -97.284283 158 22ft 0kts
15-Nov-23 08:58 27.698537 -97.284282 158 22ft 0kts
15-Nov-23 08:59 27.698536 -97.284281 158 22ft 0kts
15-Nov-23 09:00 27.698534 -97.284281 159 22ft 0kts
15-Nov-23 09:01 27.698532 -97.284280 159 22ft 0kts
15-Nov-23 09:02 27.698395 -97.284249 188 22ft 6kts
15-Nov-23 09:03 27.699223 -97.285925 334 22ft 11kts
15-Nov-23 09:04 27.697172 -97.289062 226 22ft 20kts
15-Nov-23 09:05 27.695725 -97.291011 229 22ft 9kts
15-Nov-23 09:06 27.694698 -97.291151 135 22ft 0kts
15-Nov-23 09:07 27.683453 -97.278176 133 280ft 153kts
15-Nov-23 09:08 27.651410 -97.228477 91 641ft 195kts
15-Nov-23 09:09 27.695052 -97.216240 350 529ft 196kts
15-Nov-23 09:10 27.749930 -97.227256 352 610ft 205kts
15-Nov-23 09:11 27.805540 -97.238348 342 526ft 199kts
15-Nov-23 09:12 27.857086 -97.259889 334 569ft 196kts
15-Nov-23 09:13 27.907785 -97.277868 351 1757ft 188kts
15-Nov-23 09:14 27.962644 -97.283582 355 3905ft 204kts
15-Nov-23 09:15 28.019861 -97.286659 358 5837ft 226kts
15-Nov-23 09:16 28.089472 -97.290565 356 5542ft 253kts
15-Nov-23 09:17 28.159753 -97.297729 351 5480ft 255kts
15-Nov-23 09:18 28.218925 -97.334958 308 5782ft 247kts
15-Nov-23 09:19 28.258125 -97.399378 297 5946ft 247kts
15-Nov-23 09:20 28.288480 -97.470397 308 6400ft 232kts
15-Nov-23 09:21 28.338901 -97.515764 327 6979ft 246kts
15-Nov-23 09:22 28.402329 -97.555711 334 6602ft 265kts
15-Nov-23 09:23 28.468931 -97.591698 332 6384ft 259kts
15-Nov-23 09:24 28.533297 -97.629352 331 6337ft 269kts
15-Nov-23 09:25 28.589136 -97.676472 344 5494ft 216kts
15-Nov-23 09:26 28.634513 -97.681774 76 1823ft 181kts
15-Nov-23 09:27 28.626001 -97.629552 106 1128ft 153kts
15-Nov-23 09:28 28.625076 -97.581380 357 1216ft 134kts
15-Nov-23 09:29 28.639414 -97.614608 291 1187ft 114kts
15-Nov-23 09:30 28.621087 -97.618294 114 394ft 111kts
15-Nov-23 09:31 28.610894 -97.583641 105 791ft 140kts
15-Nov-23 09:33 28.576598 -97.562833 144 2623ft 174kts
15-Nov-23 09:34 28.526064 -97.519030 143 2669ft 254kts
15-Nov-23 09:35 28.468286 -97.471704 145 2669ft 247kts
15-Nov-23 09:36 28.410391 -97.430533 149 2625ft 239kts
15-Nov-23 09:37 28.352213 -97.395596 154 2910ft 235kts
15-Nov-23 09:38 28.290937 -97.360172 150 2268ft 249kts
15-Nov-23 09:39 28.232623 -97.322135 147 2625ft 245kts
15-Nov-23 09:40 28.176981 -97.276373 142 2466ft 244kts
15-Nov-23 09:41 28.121615 -97.235089 172 2597ft 243kts
15-Nov-23 09:42 28.050078 -97.244015 184 1597ft 262kts
15-Nov-23 09:43 27.979987 -97.247892 180 1018ft 225kts
15-Nov-23 09:44 27.927942 -97.223315 138 895ft 200kts
15-Nov-23 09:45 27.914237 -97.186994 343 854ft 124kts
15-Nov-23 09:46 27.925305 -97.220053 206 653ft 115kts
15-Nov-23 09:47 27.901587 -97.200424 122 396ft 114kts
15-Nov-23 09:48 27.928296 -97.190806 356 871ft 132kts
15-Nov-23 09:49 27.931881 -97.158197 139 1171ft 227kts
15-Nov-23 09:50 27.876983 -97.136175 212 1009ft 233kts
15-Nov-23 09:51 27.816492 -97.165868 186 1003ft 238kts
15-Nov-23 09:52 27.751750 -97.174980 217 1049ft 228kts
15-Nov-23 09:53 27.737048 -97.234712 261 1007ft 193kts
15-Nov-23 09:54 27.723961 -97.296650 247 1010ft 208kts
15-Nov-23 09:55 27.685301 -97.272094 90 1039ft 174kts
15-Nov-23 09:56 27.705359 -97.287315 253 568ft 99kts
15-Nov-23 09:56 27.688968 -97.284441 136 22ft 40kts

Navigation Log

Ident Type
Flight plan parsing failed, navigation log unavailable